TAF and METAR

Could not understand the following METAR

NFNR 210600Z 14006KT 40KM SCT028 SCT048 27/25 Q1009
No TAF available for Rotuma Island Airport